San Luis Valley Regional Bergman Field Alamosa US
ICAO: KALS
IATA: ALS
Category: Medium
Scheduled Services: No

Elevation: 7539 ft
TransAlt. 18000 ft.

Airport Communications:
ASOS:135.175
DENVER CNTR:128.375
DENVER RDO:122.15
CTAF/UNICOM:122.8

KALS Zoom In..

If you have problems with the map follow the link
https://www.worldairports.se/pages/airport.php?
ICAO=KALS

Runways:

(A) RW 02 length 8519 ft width 100 ft
ILS 111.90 / hdg 23

(B) RW 20 length 8519 ft width 100 ft
---- / hdg 203

Location; KALS
Day. 07 / Time. 07.52 Zulu
* Altimeter: 30.36
* Temperature: -08° c. -17.6°f.
* Wind from: 000° Speed 00 kn.
Dewpoint: -11° c.
Visibility: 10 Statute Miles.
Clouds: Clear (automated report).

KALS 070752Z AUTO 00000KT 10SM CLR M08/M11 A3036 RMK AO2 SLP302 I1000 T10781106


Wind - Calm.

 
 
jpsmedia worldairports.se 2019   terms of use